Time;durP1;ratioP1;P1;durP2;ratioP2;P2;SDS_P1;SDS_P2;PMS_P1;PMS_P2;Temp;Humidity;BMP_temperature;BMP_pressure;BME280_temperature;BME280_humidity;BME280_pressure;Samples;Min_cycle;Max_cycle;Signal;HPM_P1;HPM_P2
2021/06/13 00:00:42;;;;;;;;;5.00;5.00;;;;;21.23;51.93;102229.69;4901754;29;45252;-89
2021/06/13 00:03:07;;;;;;;;;6.33;6.33;;;;;21.06;52.20;102206.56;4901096;28;45374;-90
2021/06/13 00:05:33;;;;;;;;;6.00;6.00;;;;;21.05;52.57;102212.78;4900706;28;46634;-88
2021/06/13 00:07:58;;;;;;;;;5.00;5.00;;;;;21.10;52.23;102219.03;4901034;29;45453;-89
2021/06/13 00:10:24;;;;;;;;;6.00;6.00;;;;;20.96;51.91;102205.69;4901198;28;45946;-89
2021/06/13 00:12:49;;;;;;;;;6.00;6.00;;;;;20.99;52.41;102218.16;4899770;29;45553;-90
2021/06/13 00:15:20;;;;;;;;;6.00;6.00;;;;;20.98;52.45;102213.72;4899606;29;48317;-89
2021/06/13 00:17:46;;;;;;;;;7.33;5.67;;;;;20.99;52.78;102215.50;4899673;29;45361;-89
2021/06/13 00:20:15;;;;;;;;;7.00;6.00;;;;;20.89;52.78;102202.13;4899440;29;45273;-89
2021/06/13 00:22:41;;;;;;;;;7.33;6.00;;;;;21.02;52.99;102223.53;4899938;29;45316;-88
2021/06/13 00:25:09;;;;;;;;;5.33;5.00;;;;;20.97;53.16;102214.56;4899317;29;47919;-89
2021/06/13 00:27:35;;;;;;;;;6.00;4.33;;;;;20.88;53.07;102200.34;4899749;29;45731;-90
2021/06/13 00:30:01;;;;;;;;;8.00;8.00;;;;;20.86;53.09;102202.13;4915265;28;45398;-89
2021/06/13 00:32:28;;;;;;;;;5.00;4.33;;;;;20.81;53.32;102190.56;4901150;29;45269;-89
2021/06/13 00:34:53;;;;;;;;;8.33;6.00;;;;;20.93;53.36;102211.94;4900294;29;45366;-89
2021/06/13 00:37:19;;;;;;;;;5.67;5.00;;;;;20.93;53.25;102216.38;4900417;28;45322;-89
2021/06/13 00:39:44;;;;;;;;;8.00;6.00;;;;;20.80;53.39;102203.03;4900667;28;45352;-89
2021/06/13 00:42:09;;;;;;;;;6.67;5.67;;;;;20.81;53.65;102202.13;4900936;28;45490;-88
2021/06/13 00:44:35;;;;;;;;;6.00;6.00;;;;;20.81;53.29;102206.59;4899007;29;47256;-89
2021/06/13 00:47:00;;;;;;;;;9.33;7.00;;;;;20.75;53.34;102201.28;4898730;29;45395;-89
2021/06/13 00:49:26;;;;;;;;;8.33;7.00;;;;;20.79;53.64;102203.91;4901364;28;45523;-89
2021/06/13 00:51:52;;;;;;;;;8.67;6.67;;;;;20.79;53.34;102205.72;4902794;29;45470;-89
2021/06/13 00:54:18;;;;;;;;;7.00;7.00;;;;;20.69;53.36;102188.78;4904228;28;46232;-88
2021/06/13 00:56:43;;;;;;;;;8.00;8.00;;;;;20.60;53.10;102179.03;4904607;28;45384;-88
2021/06/13 00:59:10;;;;;;;;;7.00;7.00;;;;;20.73;53.14;102213.75;4903092;29;45333;-88
2021/06/13 01:01:35;;;;;;;;;5.67;5.67;;;;;20.60;53.56;102195.94;4906475;28;45461;-88
2021/06/13 01:04:01;;;;;;;;;10.67;7.00;;;;;20.65;53.79;102203.94;4921396;28;47420;-89
2021/06/13 01:07:05;;;;;;;;;7.67;6.00;;;;;20.68;53.26;102209.31;4908013;28;45310;-88
2021/06/13 01:09:41;;;;;;;;;7.33;6.67;;;;;20.67;53.54;102211.97;4918743;29;44655;-89
2021/06/13 01:12:15;;;;;;;;;7.33;5.67;;;;;20.50;53.77;102188.81;4925191;28;44779;-90
2021/06/13 01:14:53;;;;;;;;;6.67;6.33;;;;;20.64;53.47;102202.19;4923609;29;47026;-89
2021/06/13 01:17:29;;;;;;;;;9.00;6.33;;;;;20.54;53.37;102197.75;4923966;29;44762;-89
2021/06/13 01:19:55;;;;;;;;;8.67;6.00;;;;;20.60;53.92;102206.63;4914627;28;45526;-90
2021/06/13 01:22:26;;;;;;;;;7.00;7.00;;;;;20.58;53.59;102210.22;4904671;29;45390;-89
2021/06/13 01:25:19;;;;;;;;;8.33;6.33;;;;;20.56;53.95;102212.88;4905228;29;45834;-90
2021/06/13 01:28:06;;;;;;;;;8.67;6.67;;;;;20.54;53.46;102211.97;4904578;29;45315;-90
2021/06/13 01:30:32;;;;;;;;;9.00;6.33;;;;;20.43;53.64;102201.28;4902505;29;45217;-90
2021/06/13 01:33:06;;;;;;;;;6.00;6.00;;;;;20.39;53.58;102202.19;4903370;28;45378;-88
2021/06/13 01:35:33;;;;;;;;;9.00;8.00;;;;;20.39;53.52;102215.53;4901726;29;48496;-89
2021/06/13 01:37:59;;;;;;;;;8.33;8.00;;;;;20.44;53.64;102220.88;4903116;28;45397;-89
2021/06/13 01:40:30;;;;;;;;;6.67;6.67;;;;;20.31;53.37;102204.88;4903906;28;45394;-89
2021/06/13 01:42:58;;;;;;;;;7.00;7.00;;;;;20.41;53.96;102226.25;4901991;29;45387;-90
2021/06/13 01:45:29;;;;;;;;;8.67;8.00;;;;;20.33;54.09;102212.88;4901426;29;46367;-89
2021/06/13 01:47:55;;;;;;;;;7.00;7.00;;;;;20.25;53.61;102202.19;4902805;29;45335;-88
2021/06/13 01:50:23;;;;;;;;;6.67;6.00;;;;;20.22;53.56;102210.22;4901865;29;45205;-89
2021/06/13 01:52:51;;;;;;;;;9.67;8.67;;;;;20.29;53.54;102219.09;4902148;29;45675;-88
2021/06/13 01:55:20;;;;;;;;;8.00;8.00;;;;;20.29;53.67;102227.09;4902797;28;45453;-90
2021/06/13 01:57:47;;;;;;;;;8.33;7.00;;;;;20.32;53.74;102235.13;4901397;29;45527;-89
2021/06/13 02:00:14;;;;;;;;;5.67;5.67;;;;;20.29;53.66;102232.44;4902543;28;45461;-89
2021/06/13 02:02:43;;;;;;;;;8.33;6.67;;;;;20.25;53.75;102237.81;4901808;29;45491;-89
2021/06/13 02:05:11;;;;;;;;;9.00;7.67;;;;;20.24;53.89;102230.66;4901764;29;46540;-89
2021/06/13 02:07:38;;;;;;;;;9.33;9.00;;;;;20.18;53.60;102230.66;4901411;29;45873;-88
2021/06/13 02:10:10;;;;;;;;;6.67;6.67;;;;;20.22;54.20;102239.59;4908026;28;45369;-88
2021/06/13 02:12:38;;;;;;;;;11.00;8.00;;;;;20.21;53.74;102238.69;4910798;29;45234;-89
2021/06/13 02:15:06;;;;;;;;;8.33;8.33;;;;;20.10;54.12;102224.44;4909068;29;48410;-90
2021/06/13 02:17:35;;;;;;;;;10.00;7.33;;;;;20.01;53.75;102223.50;4909741;29;45334;-88
2021/06/13 02:20:03;;;;;;;;;8.67;7.33;;;;;20.16;53.22;102253.81;4907886;29;45288;-89
2021/06/13 02:22:30;;;;;;;;;8.00;7.33;;;;;20.01;53.87;102234.16;4908524;29;45378;-90
2021/06/13 02:24:55;;;;;;;;;8.33;7.00;;;;;20.08;53.90;102250.19;4906995;29;47757;-90
2021/06/13 02:27:26;;;;;;;;;6.33;6.33;;;;;20.08;53.90;102252.88;4908559;29;45447;-88
2021/06/13 02:29:52;;;;;;;;;8.00;7.00;;;;;19.91;53.47;102219.03;4908533;29;45281;-88
2021/06/13 02:32:17;;;;;;;;;8.67;7.33;;;;;19.92;53.69;102223.50;4910190;29;45370;-88
2021/06/13 02:34:45;;;;;;;;;8.67;7.33;;;;;20.05;53.80;102252.88;4914685;29;47176;-89
2021/06/13 02:37:11;;;;;;;;;7.33;7.00;;;;;19.97;54.13;102245.72;4915036;29;45449;-88
2021/06/13 02:39:37;;;;;;;;;8.00;6.33;;;;;20.00;53.55;102250.19;4912778;29;45442;-90
2021/06/13 02:42:03;;;;;;;;;9.33;8.00;;;;;19.87;53.52;102236.81;4911521;28;45200;-89
2021/06/13 02:44:28;;;;;;;;;8.67;7.67;;;;;19.81;54.04;102225.22;4910294;29;46950;-88
2021/06/13 02:46:54;;;;;;;;;7.00;6.67;;;;;19.82;53.86;102232.38;4910635;29;45308;-89
2021/06/13 02:49:20;;;;;;;;;7.00;7.00;;;;;19.89;54.04;102255.50;4902759;29;45411;-88
2021/06/13 02:52:00;;;;;;;;;9.00;7.67;;;;;19.83;53.85;102256.38;4902782;29;45271;-90
2021/06/13 02:54:27;;;;;;;;;7.67;7.00;;;;;19.75;53.90;102243.03;4901135;29;47438;-89
2021/06/13 02:56:54;;;;;;;;;9.00;7.67;;;;;19.86;54.43;102266.19;4902245;29;45387;-90
2021/06/13 02:59:47;;;;;;;;;8.67;6.67;;;;;19.86;54.26;102271.50;4902064;28;45264;-90
2021/06/13 03:02:14;;;;;;;;;8.00;8.00;;;;;19.80;54.13;102277.69;4902057;29;45487;-88
2021/06/13 03:04:45;;;;;;;;;7.67;6.67;;;;;19.74;54.34;102265.25;4902360;29;48005;-89
2021/06/13 03:07:14;;;;;;;;;9.00;7.00;;;;;19.82;54.08;102280.41;4902516;29;45718;-89
2021/06/13 03:09:41;;;;;;;;;10.33;9.00;;;;;19.73;54.32;102271.47;4903727;29;45228;-90
2021/06/13 03:12:07;;;;;;;;;7.67;7.67;;;;;19.72;53.96;102283.03;4902597;29;45396;-89
2021/06/13 03:14:33;;;;;;;;;11.00;6.00;;;;;19.67;54.35;102271.47;4904582;29;47345;-89
2021/06/13 03:17:00;;;;;;;;;10.00;7.33;;;;;19.64;54.51;102282.09;4903469;29;46145;-89
2021/06/13 03:19:27;;;;;;;;;10.33;6.67;;;;;19.70;54.41;102295.47;4903626;29;45312;-89
2021/06/13 03:21:54;;;;;;;;;8.67;7.00;;;;;19.66;54.36;102285.66;4904711;28;45356;-90
2021/06/13 03:24:22;;;;;;;;;9.00;7.00;;;;;19.65;54.30;102303.44;4903968;28;45320;-89
2021/06/13 03:26:48;;;;;;;;;6.00;6.00;;;;;19.48;54.12;102276.69;4903654;28;45323;-90
2021/06/13 03:29:16;;;;;;;;;9.67;8.00;;;;;19.54;54.29;102289.19;4902034;29;45475;-89
2021/06/13 03:31:42;;;;;;;;;8.67;7.33;;;;;19.55;54.24;102289.19;4904086;28;45401;-89
2021/06/13 03:34:09;;;;;;;;;9.33;9.33;;;;;19.57;53.86;102291.84;4903689;28;45318;-89
2021/06/13 03:36:36;;;;;;;;;8.00;6.00;;;;;19.53;54.30;102290.03;4902523;29;45324;-89
2021/06/13 03:39:03;;;;;;;;;10.00;8.00;;;;;19.53;54.57;102287.38;4901943;29;45307;-90
2021/06/13 03:41:28;;;;;;;;;8.33;8.00;;;;;19.44;54.10;102274.88;4903316;28;45437;-89
2021/06/13 03:43:55;;;;;;;;;8.67;8.67;;;;;19.40;53.99;102276.66;4903065;29;46231;-89
2021/06/13 03:46:21;;;;;;;;;7.33;7.33;;;;;19.49;54.43;102288.25;4902735;28;45344;-89
2021/06/13 03:48:53;;;;;;;;;9.67;8.33;;;;;19.43;54.07;102286.44;4901239;29;45486;-89
2021/06/13 03:51:20;;;;;;;;;12.33;9.00;;;;;19.43;54.31;102290.03;4901298;29;45506;-89
2021/06/13 03:53:47;;;;;;;;;8.67;7.00;;;;;19.36;53.82;102273.97;4900087;29;47985;-89
2021/06/13 03:56:19;;;;;;;;;7.33;7.33;;;;;19.46;53.96;102288.25;4901505;29;45338;-90
2021/06/13 03:58:47;;;;;;;;;10.33;7.67;;;;;19.50;54.54;102306.91;4901439;29;45522;-90
2021/06/13 04:01:15;;;;;;;;;7.67;7.00;;;;;19.38;53.98;102282.84;4903427;28;45459;-89
2021/06/13 04:03:42;;;;;;;;;7.00;7.00;;;;;19.39;53.73;102298.00;4900189;29;47531;-90
2021/06/13 04:06:08;;;;;;;;;9.33;8.33;;;;;19.40;53.62;102299.75;4900628;29;45761;-90
2021/06/13 04:08:37;;;;;;;;;7.00;7.00;;;;;19.36;53.35;102292.63;4901138;29;45437;-89
2021/06/13 04:11:04;;;;;;;;;13.67;8.67;;;;;19.37;53.64;102299.75;4903296;28;45455;-90
2021/06/13 04:13:30;;;;;;;;;9.67;6.00;;;;;19.31;53.43;102297.97;4904249;29;48267;-89
2021/06/13 04:15:57;;;;;;;;;10.00;8.33;;;;;19.28;53.97;102296.16;4905190;28;45246;-89
2021/06/13 04:18:23;;;;;;;;;12.00;9.33;;;;;19.32;53.80;102307.72;4907939;29;45444;-89
2021/06/13 04:20:49;;;;;;;;;9.33;8.67;;;;;19.32;54.09;102319.28;4925998;28;44777;-89
2021/06/13 04:23:15;;;;;;;;;7.33;7.33;;;;;19.36;53.80;102320.19;4926922;28;46970;-89
2021/06/13 04:25:43;;;;;;;;;10.33;8.00;;;;;19.40;53.80;102329.09;4930800;28;44849;-90
2021/06/13 04:28:12;;;;;;;;;13.00;9.00;;;;;19.35;54.07;102328.19;4908959;28;45194;-89
2021/06/13 04:30:38;;;;;;;;;8.00;8.00;;;;;19.21;53.89;102302.31;4904710;28;45552;-89
2021/06/13 04:33:04;;;;;;;;;7.00;4.33;;;;;19.30;53.93;102323.72;4905083;29;46361;-89
2021/06/13 04:35:29;;;;;;;;;7.33;7.33;;;;;19.28;53.63;102328.16;4906302;28;45614;-89
2021/06/13 04:37:55;;;;;;;;;9.00;9.00;;;;;19.29;53.81;102324.59;4906026;28;45938;-88
2021/06/13 04:40:21;;;;;;;;;7.33;7.33;;;;;19.32;54.11;102334.38;4906431;28;45423;-90
2021/06/13 04:42:46;;;;;;;;;14.33;7.67;;;;;19.32;54.00;102332.63;4920320;28;46993;-90
2021/06/13 04:45:12;;;;;;;;;11.00;7.33;;;;;19.27;54.60;102326.34;4904890;29;45424;-89
2021/06/13 04:47:38;;;;;;;;;8.33;7.00;;;;;19.30;54.10;102331.72;4905387;28;45536;-90
2021/06/13 04:50:05;;;;;;;;;9.33;8.33;;;;;19.31;53.85;102344.16;4906832;28;45401;-89
2021/06/13 04:52:32;;;;;;;;;8.67;7.67;;;;;19.27;53.47;102337.00;4907013;29;46104;-90
2021/06/13 04:55:11;;;;;;;;;7.00;7.00;;;;;19.18;53.55;102320.97;4919724;28;45473;-88
2021/06/13 04:58:09;;;;;;;;;14.00;10.33;;;;;19.28;53.85;102341.47;4888005;29;45404;-89
2021/06/13 05:00:34;;;;;;;;;11.00;7.67;;;;;19.18;53.59;102326.31;4903703;29;45656;-88
2021/06/13 05:03:00;;;;;;;;;8.00;8.00;;;;;19.27;53.53;102337.00;4904024;28;45223;-89
2021/06/13 05:05:25;;;;;;;;;7.33;7.33;;;;;19.25;53.82;102338.78;4902288;29;45365;-90
2021/06/13 05:07:50;;;;;;;;;8.33;7.00;;;;;19.20;53.67;102324.53;4903844;28;45434;-89
2021/06/13 05:10:16;;;;;;;;;6.33;6.33;;;;;19.16;53.52;102320.06;4902504;29;45554;-89
2021/06/13 05:12:50;;;;;;;;;7.67;7.33;;;;;19.29;53.63;102340.59;4902102;29;47446;-89
2021/06/13 05:15:17;;;;;;;;;9.00;9.00;;;;;19.21;53.77;102337.88;4902822;29;45746;-89
2021/06/13 05:17:42;;;;;;;;;8.00;7.33;;;;;19.32;53.72;102356.63;4905512;29;45649;-88
2021/06/13 05:20:09;;;;;;;;;7.33;7.33;;;;;19.23;53.54;102342.34;4912521;28;45463;-89
2021/06/13 05:22:52;;;;;;;;;9.33;8.00;;;;;19.21;53.76;102345.88;4910002;29;48172;-88
2021/06/13 05:25:18;;;;;;;;;10.00;8.33;;;;;19.28;53.58;102352.16;4906283;29;45576;-90
2021/06/13 05:27:44;;;;;;;;;9.67;9.33;;;;;19.23;53.38;102343.22;4906447;28;45334;-89
2021/06/13 05:30:10;;;;;;;;;7.33;7.33;;;;;19.34;53.82;102364.63;4904511;29;45507;-89
2021/06/13 05:32:36;;;;;;;;;8.33;8.00;;;;;19.33;53.73;102371.72;4905784;29;47787;-90
2021/06/13 05:35:01;;;;;;;;;10.67;9.33;;;;;19.32;54.02;102366.38;4902189;29;45484;-90
2021/06/13 05:37:26;;;;;;;;;7.33;7.33;;;;;19.20;53.69;102343.19;4901976;29;45913;-89
2021/06/13 05:39:52;;;;;;;;;10.67;8.00;;;;;19.32;52.95;102361.94;4903270;28;45472;-90
2021/06/13 05:42:17;;;;;;;;;11.67;7.67;;;;;19.36;53.83;102369.94;4903272;28;45512;-90
2021/06/13 05:44:43;;;;;;;;;12.00;9.33;;;;;19.34;53.21;102375.28;4904043;28;45239;-88
2021/06/13 05:47:08;;;;;;;;;8.33;8.33;;;;;19.37;53.56;102371.75;4903462;28;45341;-89
2021/06/13 05:49:33;;;;;;;;;8.00;8.00;;;;;19.35;53.01;102369.09;4902174;29;45341;-88
2021/06/13 05:51:59;;;;;;;;;11.33;9.33;;;;;19.36;53.21;102375.28;4902812;28;46307;-90
2021/06/13 05:54:24;;;;;;;;;12.00;8.00;;;;;19.32;53.01;102361.94;4903145;28;45331;-87
2021/06/13 05:56:50;;;;;;;;;13.33;10.33;;;;;19.30;53.57;102361.03;4903026;28;45254;-87
2021/06/13 05:59:15;;;;;;;;;10.00;7.00;;;;;19.32;53.42;102364.63;4917920;28;45545;-88
2021/06/13 06:01:41;;;;;;;;;6.67;6.67;;;;;19.28;53.20;102359.25;4903158;29;47875;-88
2021/06/13 06:04:06;;;;;;;;;14.00;7.00;;;;;19.41;52.74;102376.22;4908187;28;45214;-88
2021/06/13 06:06:31;;;;;;;;;6.33;6.33;;;;;19.39;52.60;102368.22;4904929;29;45296;-89
2021/06/13 06:08:57;;;;;;;;;6.33;6.00;;;;;19.44;52.56;102381.56;4923777;28;45298;-88
2021/06/13 06:11:22;;;;;;;;;6.67;6.67;;;;;19.36;52.45;102357.50;4908769;28;45348;-88
2021/06/13 06:13:53;;;;;;;;;7.00;7.00;;;;;19.44;52.38;102377.13;4923833;28;45868;-87
2021/06/13 06:16:19;;;;;;;;;7.67;5.67;;;;;19.52;52.51;102389.63;4905815;28;45235;-89
2021/06/13 06:18:44;;;;;;;;;7.67;6.67;;;;;19.59;52.99;102390.53;4904803;29;45207;-89
2021/06/13 06:21:10;;;;;;;;;6.00;6.00;;;;;19.60;52.79;102395.00;4901943;29;48084;-89
2021/06/13 06:23:35;;;;;;;;;8.33;7.33;;;;;19.55;52.64;102377.19;4903753;28;45240;-90
2021/06/13 06:26:01;;;;;;;;;9.00;7.00;;;;;19.53;52.33;102376.28;4903409;28;45312;-89
2021/06/13 06:28:26;;;;;;;;;7.00;7.00;;;;;19.67;51.90;102392.38;4902287;29;45285;-90
2021/06/13 06:30:51;;;;;;;;;9.67;7.00;;;;;19.57;51.85;102371.84;4905958;28;46413;-90
2021/06/13 06:33:17;;;;;;;;;7.33;6.67;;;;;19.56;51.35;102372.75;4907791;29;45489;-90
2021/06/13 06:35:42;;;;;;;;;10.33;6.00;;;;;19.55;50.96;102369.19;4912929;28;45517;-89
2021/06/13 06:38:09;;;;;;;;;7.00;7.00;;;;;19.58;51.68;102379.00;4911332;29;45603;-89
2021/06/13 06:40:34;;;;;;;;;6.67;6.67;;;;;19.75;51.63;102403.09;4914419;29;48496;-88
2021/06/13 06:42:59;;;;;;;;;8.33;6.67;;;;;19.74;51.69;102403.06;4914708;29;45453;-89
2021/06/13 06:45:25;;;;;;;;;6.00;6.00;;;;;19.79;51.60;102412.91;4909849;28;45373;-89
2021/06/13 06:47:51;;;;;;;;;7.33;7.33;;;;;19.71;51.22;102395.06;4903098;28;45283;-89
2021/06/13 06:50:17;;;;;;;;;8.00;6.67;;;;;19.67;51.21;102376.38;4904547;28;46031;-90
2021/06/13 06:52:43;;;;;;;;;9.00;6.00;;;;;19.81;50.69;102401.34;4904842;29;45429;-89
2021/06/13 06:55:09;;;;;;;;;5.33;5.33;;;;;19.79;50.71;102396.00;4901759;29;45281;-91
2021/06/13 06:57:37;;;;;;;;;9.00;6.00;;;;;19.73;50.42;102372.84;4905599;29;45320;-89
2021/06/13 07:00:06;;;;;;;;;7.67;7.00;;;;;19.81;51.17;102388.91;4906477;29;46126;-89
2021/06/13 07:02:31;;;;;;;;;6.00;5.67;;;;;19.83;50.85;102387.13;4902600;29;45411;-92
2021/06/13 07:04:57;;;;;;;;;8.00;7.00;;;;;19.85;50.35;102382.69;4903555;28;45422;-88
2021/06/13 07:07:23;;;;;;;;;6.33;6.33;;;;;19.93;50.31;102403.16;4920111;28;45479;-92
2021/06/13 07:09:48;;;;;;;;;6.00;5.67;;;;;19.90;50.01;102390.72;4903108;28;45414;-90
2021/06/13 07:12:13;;;;;;;;;9.67;7.00;;;;;20.01;49.73;102407.66;4903147;28;45286;-90
2021/06/13 07:14:39;;;;;;;;;6.33;6.00;;;;;19.94;50.30;102389.84;4918334;28;45392;-90
2021/06/13 07:17:04;;;;;;;;;7.67;6.33;;;;;20.00;50.72;102386.31;4902639;29;45212;-89
2021/06/13 07:19:30;;;;;;;;;9.33;7.00;;;;;20.01;50.66;102388.97;4900425;29;47999;-90
2021/06/13 07:21:55;;;;;;;;;7.00;5.33;;;;;20.06;50.18;102391.69;4902981;28;45251;-89
2021/06/13 07:24:21;;;;;;;;;6.00;5.00;;;;;20.08;50.36;102399.69;4903747;29;45362;-89
2021/06/13 07:26:46;;;;;;;;;5.00;5.00;;;;;20.14;50.35;102402.41;4901762;28;45243;-88
2021/06/13 07:29:11;;;;;;;;;5.00;2.67;;;;;20.11;49.97;102394.41;4901047;28;45212;-89
2021/06/13 07:31:37;;;;;;;;;5.00;5.00;;;;;20.16;49.72;102402.44;4903205;28;45520;-90
2021/06/13 07:34:02;;;;;;;;;6.00;5.00;;;;;20.21;49.32;102403.34;4902497;28;45416;-89
2021/06/13 07:36:28;;;;;;;;;6.33;5.00;;;;;20.15;49.80;102396.19;4901660;28;45481;-90
2021/06/13 07:38:53;;;;;;;;;5.00;5.00;;;;;20.23;48.82;102402.47;4901647;28;46169;-88
2021/06/13 07:41:19;;;;;;;;;5.00;4.33;;;;;20.22;49.19;102394.44;4900114;29;45384;-89
2021/06/13 07:43:44;;;;;;;;;6.00;6.00;;;;;20.21;48.73;102396.22;4900506;29;45302;-88
2021/06/13 07:46:10;;;;;;;;;5.00;5.00;;;;;20.27;48.33;102394.44;4901066;29;45374;-89
2021/06/13 07:48:35;;;;;;;;;6.33;6.00;;;;;20.35;48.90;102403.38;4915752;29;47264;-89
2021/06/13 07:51:01;;;;;;;;;5.67;5.67;;;;;20.50;49.06;102412.31;4920641;28;44813;-89
2021/06/13 07:53:27;;;;;;;;;5.33;5.33;;;;;20.44;48.75;102394.50;4922067;29;45281;-88
2021/06/13 07:55:53;;;;;;;;;7.00;5.00;;;;;20.44;48.16;102395.38;4921834;28;44688;-90
2021/06/13 07:58:18;;;;;;;;;5.67;5.67;;;;;20.52;48.31;102383.84;4916241;28;45035;-87
2021/06/13 08:00:44;;;;;;;;;6.00;5.00;;;;;20.60;48.56;102392.78;4910576;29;45277;-87
2021/06/13 08:03:09;;;;;;;;;4.33;4.33;;;;;20.65;48.05;102401.66;4924887;28;45327;-87
2021/06/13 08:05:35;;;;;;;;;6.33;5.33;;;;;20.73;47.89;102399.00;4905525;29;45503;-88
2021/06/13 08:08:06;;;;;;;;;6.00;5.33;;;;;20.89;47.87;102401.69;4902377;29;48279;-88
2021/06/13 08:10:32;;;;;;;;;4.33;4.00;;;;;21.11;47.51;102410.63;4901542;28;45323;-88
2021/06/13 08:12:58;;;;;;;;;6.00;4.33;;;;;21.22;47.19;102386.56;4900227;29;45666;-88
2021/06/13 08:15:23;;;;;;;;;5.33;5.33;;;;;21.56;46.87;102404.34;4902134;29;45347;-88
2021/06/13 08:17:49;;;;;;;;;6.67;5.00;;;;;21.81;46.36;102409.63;4899425;29;47408;-86
2021/06/13 08:20:16;;;;;;;;;5.33;5.33;;;;;22.03;47.16;102406.91;4900641;28;45363;-87
2021/06/13 08:22:42;;;;;;;;;7.33;6.00;;;;;22.40;46.27;102407.63;4900852;28;45220;-86
2021/06/13 08:25:10;;;;;;;;;5.00;5.00;;;;;22.68;46.08;102407.47;4899663;29;45247;-87
2021/06/13 08:27:35;;;;;;;;;6.67;5.00;;;;;22.98;44.55;102407.25;4899118;29;47610;-89
2021/06/13 08:30:01;;;;;;;;;4.33;4.33;;;;;23.18;44.72;102398.16;4898995;29;45410;-87
2021/06/13 08:32:27;;;;;;;;;5.00;5.00;;;;;23.56;44.31;102414.81;4900343;29;45311;-87
2021/06/13 08:34:53;;;;;;;;;6.67;6.67;;;;;23.83;43.82;102410.03;4899286;29;45491;-87
2021/06/13 08:37:18;;;;;;;;;4.67;4.33;;;;;24.15;44.18;102416.81;4914447;28;47896;-88
2021/06/13 08:39:44;;;;;;;;;6.00;6.00;;;;;24.31;43.76;102392.44;4900219;29;45294;-88
2021/06/13 08:42:10;;;;;;;;;4.67;4.67;;;;;24.70;43.07;102399.03;4900631;29;45692;-87
2021/06/13 08:44:36;;;;;;;;;6.00;5.00;;;;;24.92;42.81;102394.19;4900734;28;45220;-89
2021/06/13 08:47:02;;;;;;;;;3.33;3.33;;;;;25.31;40.30;102407.00;4900151;28;45289;-87
2021/06/13 08:49:28;;;;;;;;;4.00;4.00;;;;;25.61;40.14;102394.78;4899197;29;45434;-89
2021/06/13 08:51:54;;;;;;;;;5.00;4.67;;;;;25.95;39.74;102390.53;4900730;29;45347;-88
2021/06/13 08:54:21;;;;;;;;;6.00;4.00;;;;;26.24;39.20;102381.81;4899767;29;45378;-90
2021/06/13 08:56:47;;;;;;;;;4.00;4.00;;;;;26.69;39.37;102397.88;4899262;29;47901;-90
2021/06/13 08:59:14;;;;;;;;;5.67;4.33;;;;;27.00;38.44;102380.91;4899320;29;45166;-88
2021/06/13 09:01:40;;;;;;;;;5.67;5.67;;;;;27.53;37.67;102394.81;4900236;28;45218;-88
2021/06/13 09:04:06;;;;;;;;;6.00;5.00;;;;;27.94;36.76;102391.84;4901124;28;45269;-91
2021/06/13 09:06:34;;;;;;;;;6.00;5.00;;;;;28.40;36.06;102380.59;4898933;29;48194;-89
2021/06/13 09:09:01;;;;;;;;;4.00;4.00;;;;;28.82;35.91;102378.31;4899307;29;45417;-88
2021/06/13 09:11:31;;;;;;;;;5.67;4.00;;;;;29.45;34.73;102398.69;4903234;28;45460;-89
2021/06/13 09:14:14;;;;;;;;;4.00;4.00;;;;;30.01;35.55;102389.44;4903192;28;45472;-90
2021/06/13 09:16:43;;;;;;;;;5.67;5.00;;;;;30.62;34.23;102393.34;4903344;28;46593;-88
2021/06/13 09:19:09;;;;;;;;;6.33;5.33;;;;;31.44;33.89;102385.31;4902669;29;45462;-88
2021/06/13 09:21:36;;;;;;;;;4.67;4.00;;;;;32.54;31.56;102379.28;4902672;29;45362;-88
2021/06/13 09:24:18;;;;;;;;;4.33;4.33;;;;;33.94;29.81;102389.28;4902372;29;45551;-89
2021/06/13 09:26:44;;;;;;;;;8.00;5.00;;;;;34.53;29.22;102390.47;4907457;28;45401;-90
2021/06/13 09:29:10;;;;;;;;;6.00;5.00;;;;;34.62;29.46;102386.31;4908222;28;45471;-88
2021/06/13 09:31:37;;;;;;;;;4.33;4.33;;;;;34.58;29.56;102403.84;4907047;29;44799;-90
2021/06/13 09:34:05;;;;;;;;;4.33;4.33;;;;;34.30;28.92;102384.53;4908718;28;45319;-88
2021/06/13 09:36:32;;;;;;;;;8.00;6.00;;;;;34.27;28.60;102393.78;4906468;29;47746;-89
2021/06/13 09:39:04;;;;;;;;;4.67;4.33;;;;;34.12;29.50;102395.50;4903851;28;45848;-89
2021/06/13 09:41:30;;;;;;;;;5.00;4.67;;;;;34.05;28.23;102392.28;4902121;29;45266;-89
2021/06/13 09:44:00;;;;;;;;;6.33;6.33;;;;;34.12;28.13;102397.38;4902585;29;45506;-90
2021/06/13 09:46:28;;;;;;;;;5.00;5.00;;;;;34.11;28.28;102384.69;4902994;29;46293;-90
2021/06/13 09:49:04;;;;;;;;;4.33;4.33;;;;;34.18;28.28;102395.16;4901240;29;45491;-87
2021/06/13 09:51:33;;;;;;;;;4.67;3.67;;;;;34.15;27.79;102380.81;4901576;29;45213;-89
2021/06/13 09:54:03;;;;;;;;;5.00;3.00;;;;;34.20;27.81;102370.53;4902920;28;45445;-90
2021/06/13 09:56:36;;;;;;;;;6.33;4.00;;;;;34.26;27.65;102375.66;4903106;28;46128;-88
2021/06/13 09:59:02;;;;;;;;;4.00;2.67;;;;;34.41;27.34;102390.25;4901320;28;45410;-91
2021/06/13 10:01:30;;;;;;;;;4.67;4.67;;;;;34.46;27.58;102383.63;4901583;29;45462;-90
2021/06/13 10:03:57;;;;;;;;;4.67;4.00;;;;;34.44;27.33;102378.25;4903966;29;45567;-90
2021/06/13 10:06:23;;;;;;;;;5.00;5.00;;;;;34.53;26.96;102383.19;4908877;29;48352;-89
2021/06/13 10:08:49;;;;;;;;;3.00;3.00;;;;;34.40;26.81;102374.84;4911019;29;46050;-92
2021/06/13 10:11:17;;;;;;;;;5.00;5.00;;;;;34.33;27.30;102378.88;4910930;28;45514;-91
2021/06/13 10:13:53;;;;;;;;;4.67;3.67;;;;;34.23;27.04;102370.34;4909943;28;45318;-92
2021/06/13 10:16:31;;;;;;;;;4.00;3.67;;;;;34.22;27.42;102379.50;4905812;28;46243;-92
2021/06/13 10:19:01;;;;;;;;;4.67;3.67;;;;;34.15;27.07;102361.72;4903120;28;45391;-93
2021/06/13 10:21:35;;;;;;;;;4.33;4.00;;;;;34.07;26.84;102370.34;4901719;29;45804;-91
2021/06/13 10:24:05;;;;;;;;;5.33;5.00;;;;;33.99;28.05;102362.63;4901409;29;45514;-89
2021/06/13 10:26:32;;;;;;;;;2.00;2.00;;;;;33.94;27.11;102360.16;4902679;28;46204;-89
2021/06/13 10:28:58;;;;;;;;;3.33;3.33;;;;;33.88;26.91;102365.06;4901759;28;45355;-92
2021/06/13 10:31:23;;;;;;;;;3.67;3.67;;;;;33.79;27.23;102361.91;4902664;29;45465;-92
2021/06/13 10:33:49;;;;;;;;;4.67;4.00;;;;;33.66;27.58;102347.16;4903246;29;45501;-90
2021/06/13 10:36:18;;;;;;;;;4.50;4.00;;;;;33.58;26.80;102353.94;4902238;28;45393;-89
2021/06/13 10:38:44;;;;;;;;;5.00;3.00;;;;;33.54;27.46;102346.00;4902177;28;45228;-90
2021/06/13 10:41:10;;;;;;;;;4.00;4.00;;;;;33.55;26.79;102348.66;4901234;29;45237;-90
2021/06/13 10:43:36;;;;;;;;;4.00;4.00;;;;;33.56;27.23;102355.88;4917354;28;45377;-90
2021/06/13 10:46:04;;;;;;;;;2.00;2.00;;;;;33.48;26.52;102336.34;4901755;28;45358;-91
2021/06/13 10:48:46;;;;;;;;;4.33;4.33;;;;;33.54;26.56;102352.34;4902045;29;45449;-90
2021/06/13 10:51:25;;;;;;;;;3.67;3.33;;;;;33.43;26.98;102344.78;4901960;28;45250;-91
2021/06/13 10:53:50;;;;;;;;;6.67;4.33;;;;;33.43;27.10;102339.31;4902283;28;45462;-90
2021/06/13 10:56:24;;;;;;;;;5.00;3.33;;;;;33.48;27.09;102348.13;4901809;28;46586;-90
2021/06/13 10:58:52;;;;;;;;;2.00;2.00;;;;;33.49;26.35;102332.63;4901937;28;45432;-91
2021/06/13 11:01:28;;;;;;;;;4.50;3.00;;;;;33.52;26.82;102337.94;4901648;28;45458;-91
2021/06/13 11:04:13;;;;;;;;;3.67;2.00;;;;;33.44;26.78;102324.72;4901999;28;45288;-88
2021/06/13 11:06:38;;;;;;;;;4.00;3.00;;;;;33.46;27.07;102333.72;4901543;28;46188;-89
2021/06/13 11:09:06;;;;;;;;;4.00;3.00;;;;;33.35;26.96;102312.50;4902081;29;45172;-89
2021/06/13 11:11:41;;;;;;;;;5.33;3.67;;;;;33.44;26.29;102324.72;4916713;28;45536;-90
2021/06/13 11:14:36;;;;;;;;;3.33;3.33;;;;;33.54;27.13;102329.66;4916819;28;45642;-90
2021/06/13 11:17:02;;;;;;;;;4.67;4.67;;;;;33.56;26.58;102328.63;4842761;29;46183;-88
2021/06/13 11:19:30;;;;;;;;;4.67;3.00;;;;;33.51;26.80;102320.69;4842707;29;45467;-88
2021/06/13 11:22:17;;;;;;;;;2.67;2.33;;;;;33.56;25.95;102327.72;4843242;29;45516;-88
2021/06/13 11:24:52;;;;;;;;;3.67;3.67;;;;;33.55;26.09;102326.00;4827259;29;45378;-88
2021/06/13 11:27:17;;;;;;;;;2.67;2.33;;;;;33.52;26.24;102318.84;4842393;29;46416;-90